Orenburg Central Airport
UWOO : now visible

Airfield :











YOU CAN JOIN US ON...

 
LOGIN :

Register | Disclaimer

   EN    FR    IT 

 









Legend :    VFR   Marginal VFR   IFR   Intensive IFR   Very Intensive IFR
Visi :
Ceiling :
>= 8 km
>= 3000ft
5 to 8 km
1000 to 3000 ft
1500m to 5 km
500 to 1000 ft
800 to 1500m
200 to 500 ft
< 800m
< 200 ft
Symbols :   Thunderstorms  Fog  Heavy snow  Heavy precipitations  Wind > 20 kt






- Airport Elevation : 387 ft
- IATA code : REN


UWOO - Orenburg Central

CURRENT METAR :
  • 260130Z 25002MPS 3600 -SNRA OVC002 00/00 Q0993 R08/590528 NOSIG RMK QBB080 QFE734/0979

EXPIRED METARs :
  • 260100Z 24002MPS 2300 -SNRA OVC003 00/00 Q0993 R08/590528 NOSIG RMK QBB100 QFE734/0979
  • 260030Z 21002MPS 1400 1300E R08/P2000U SNRA OVC004 00/00 Q0993 R08/590528 NOSIG RMK QBB120 QFE734/0979
  • 260000Z 17002MPS 2100 R08/P2000U -SNRA OVC004 00/00 Q0993 R08/590528 NOSIG RMK QBB130 QFE734/0979
  • 252330Z 15003MPS 2000 SNRA OVC002 00/00 Q0993 R08/590528 NOSIG RMK QBB060 QFE735/0980
  • 252300Z 14003MPS 1700 SNRA OVC002 00/00 Q0994 R08/590528 NOSIG RMK QBB060 QFE735/0980

TAF TAF UWOO
Valid from the 26 at 00:00 until the 27 at 00:00 UTC


252251Z 2600/2624 14006G12MPS 2100 -SNRA BR OVC004 TX00/2600Z TNM09/2623Z
TEMPO 2600/2603 24006G12MPS 0400 FZDZ SNRA FZFG VV002
BECMG 2603/2604 28008G14MPS
TEMPO 2604/2609 30010G16MPS 1000 SN BLSN BR OVC002
FM260900 30010G18MPS 6000 -SHSN BLSN BKN016CB
TEMPO 2609/2624 1000 SHSN BLSN BR FEW004



MET'MAP, your aeronautical weather chart ! - Copyright ORBIFLY December 2007 - Disclaimer

ORBIFLY MET'MAP TEAM :

Programming & Development : Alexandra Zaïnal
Concept & original design : Baudouin d'Aumeries
Assistance for programming : Marc-Olivier Méhu
Technical & hardware support : Manuel Goepfert

Contact : metmap@orbifly.com




SOURCES & CREDITS :

   NOAA       Earth
Advisory